Aviation Digital Data Service (ADDS)

Output produced by METARs form (1536 UTC 03 June 2015)
found at http://aviationweather.gov/adds/metars/
 
KPGV 031121Z 0312/0412 07009KT P6SM -RA OVC006 
     FM031500 VRB05KT P6SM VCTS BKN015CB 
     FM032300 03005KT P6SM VCSH OVC015 
     FM040600 02004KT 5SM -RA BR OVC010 AMD LTD TO CLD VIS AND WIND